createdAt,value
2022-09-09T00:04:38.492Z,0
2022-09-09T00:09:42.661Z,0
2022-09-09T00:14:46.833Z,0
2022-09-09T00:19:49.083Z,0
2022-09-09T00:24:53.250Z,0
2022-09-09T00:29:55.478Z,0
2022-09-09T00:34:59.691Z,0
2022-09-09T00:40:03.909Z,0
2022-09-09T00:45:07.973Z,0
2022-09-09T00:50:12.117Z,0
2022-09-09T00:55:16.329Z,0
2022-09-09T01:00:20.447Z,0
2022-09-09T01:05:24.626Z,0
2022-09-09T01:10:28.766Z,0
2022-09-09T01:15:32.944Z,0
2022-09-09T01:20:37.089Z,0
2022-09-09T01:25:41.283Z,0
2022-09-09T01:30:45.465Z,0
2022-09-09T01:35:49.597Z,0
2022-09-09T01:40:53.719Z,0
2022-09-09T01:45:57.912Z,0
2022-09-09T01:51:02.054Z,0
2022-09-09T01:56:06.253Z,0
2022-09-09T02:01:10.463Z,0
2022-09-09T02:06:14.532Z,0
2022-09-09T02:11:18.706Z,0
2022-09-09T02:16:21.044Z,0
2022-09-09T02:21:25.127Z,0
2022-09-09T02:26:29.276Z,0
2022-09-09T02:31:33.451Z,0
2022-09-09T02:36:37.615Z,0
2022-09-09T02:41:41.762Z,0
2022-09-09T02:46:45.950Z,0
2022-09-09T02:51:50.067Z,0
2022-09-09T03:01:58.471Z,0
2022-09-09T03:07:02.551Z,0
2022-09-09T03:12:06.730Z,0
2022-09-09T03:17:10.910Z,0
2022-09-09T03:22:15.083Z,0
2022-09-09T03:27:19.208Z,0
2022-09-09T03:32:23.386Z,0
2022-09-09T03:37:27.510Z,0
2022-09-09T03:42:31.729Z,0
2022-09-09T03:47:35.830Z,0
2022-09-09T03:52:40.004Z,0
2022-09-09T03:57:44.176Z,0
2022-09-09T04:02:48.326Z,0
2022-09-09T04:07:50.599Z,0
2022-09-09T04:12:54.776Z,0
2022-09-09T04:17:57.068Z,0
2022-09-09T04:23:01.222Z,0
2022-09-09T04:28:03.448Z,0
2022-09-09T04:33:07.628Z,0
2022-09-09T04:38:11.794Z,3
2022-09-09T04:43:15.951Z,9
2022-09-09T04:48:20.094Z,20
2022-09-09T04:53:24.242Z,45
2022-09-09T04:58:28.520Z,85
2022-09-09T05:03:32.601Z,133
2022-09-09T05:08:36.849Z,189
2022-09-09T05:13:41.532Z,350
2022-09-09T05:18:45.082Z,473
2022-09-09T05:23:49.241Z,633
2022-09-09T05:28:53.392Z,645
2022-09-09T05:33:57.561Z,666
2022-09-09T05:39:01.687Z,771
2022-09-09T05:44:05.896Z,650
2022-09-09T05:49:10.037Z,867
2022-09-09T05:54:14.195Z,1060
2022-09-09T05:59:18.339Z,1249
2022-09-09T06:04:22.540Z,1361
2022-09-09T06:09:26.628Z,1426
2022-09-09T06:14:28.940Z,1425
2022-09-09T06:19:33.090Z,1754
2022-09-09T06:24:35.384Z,2114
2022-09-09T06:29:39.501Z,2072
2022-09-09T06:34:41.811Z,1901
2022-09-09T06:39:45.948Z,2950
2022-09-09T06:44:50.120Z,2521
2022-09-09T06:49:54.239Z,2730
2022-09-09T06:54:58.448Z,3494
2022-09-09T07:00:02.617Z,3686
2022-09-09T07:05:06.804Z,3873
2022-09-09T07:10:10.929Z,3856
2022-09-09T07:15:15.089Z,2186
2022-09-09T07:20:19.233Z,1608
2022-09-09T07:25:23.434Z,3355
2022-09-09T07:30:28.060Z,5385
2022-09-09T07:35:31.710Z,3186
2022-09-09T07:40:35.882Z,1995
2022-09-09T07:45:40.067Z,1572
2022-09-09T07:50:44.172Z,1677
2022-09-09T07:55:48.357Z,2150
2022-09-09T08:00:53.648Z,2999
2022-09-09T08:05:56.669Z,2850
2022-09-09T08:11:00.816Z,3094
2022-09-09T08:16:05.017Z,1716
2022-09-09T08:21:07.257Z,2777
2022-09-09T08:26:11.448Z,4185
2022-09-09T08:31:15.645Z,3564
2022-09-09T08:36:19.732Z,4843
2022-09-09T08:41:23.870Z,6018
2022-09-09T08:46:28.178Z,5170
2022-09-09T08:51:32.197Z,3595
2022-09-09T08:56:36.414Z,2477
2022-09-09T09:01:40.585Z,2300
2022-09-09T09:06:44.707Z,2354
2022-09-09T09:11:48.861Z,4913
2022-09-09T09:16:52.981Z,7234
2022-09-09T09:21:57.179Z,7419
2022-09-09T09:27:01.377Z,6825
2022-09-09T09:32:05.497Z,6379
2022-09-09T09:37:09.628Z,8289
2022-09-09T09:42:13.803Z,7310
2022-09-09T09:47:17.981Z,8517
2022-09-09T09:52:22.123Z,7420
2022-09-09T09:57:26.291Z,5587
2022-09-09T10:02:30.460Z,5123
2022-09-09T10:07:32.712Z,5307
2022-09-09T10:12:36.846Z,6359
2022-09-09T10:17:39.162Z,7515
2022-09-09T10:22:43.293Z,7112
2022-09-09T10:27:45.589Z,8455
2022-09-09T10:32:49.720Z,7814
2022-09-09T10:37:53.860Z,2644
2022-09-09T10:42:58.048Z,2603
2022-09-09T10:48:02.185Z,2780
2022-09-09T10:53:06.386Z,7934
2022-09-09T10:58:10.534Z,8645
2022-09-09T11:03:14.708Z,5895
2022-09-09T11:08:18.999Z,5397
2022-09-09T11:13:22.985Z,9303
2022-09-09T11:18:27.172Z,7870
2022-09-09T11:23:31.333Z,10180
2022-09-09T11:28:35.562Z,10365
2022-09-09T11:33:39.646Z,9477
2022-09-09T11:38:43.802Z,9170
2022-09-09T11:43:48.112Z,8049
2022-09-09T11:48:52.144Z,9070
2022-09-09T11:53:54.400Z,9015
2022-09-09T11:58:58.538Z,6653
2022-09-09T12:04:02.737Z,3101
2022-09-09T12:09:06.961Z,2959
2022-09-09T12:14:09.148Z,2495
2022-09-09T12:19:13.271Z,4875
2022-09-09T12:24:15.547Z,6156
2022-09-09T12:29:19.752Z,2970
2022-09-09T12:34:23.847Z,9451
2022-09-09T12:39:28.097Z,9290
2022-09-09T12:44:32.169Z,7751
2022-09-09T12:49:36.375Z,7360
2022-09-09T12:54:40.525Z,4690
2022-09-09T12:59:44.696Z,2766
2022-09-09T13:04:48.844Z,6203
2022-09-09T13:09:53.025Z,9065
2022-09-09T13:14:57.141Z,6191
2022-09-09T13:20:01.378Z,2711
2022-09-09T13:25:05.462Z,2870
2022-09-09T13:30:09.620Z,7267
2022-09-09T13:35:13.776Z,9543
2022-09-09T13:40:17.945Z,7511
2022-09-09T13:45:22.113Z,7885
2022-09-09T13:50:26.285Z,2788
2022-09-09T13:55:30.426Z,1465
2022-09-09T14:00:34.559Z,1507
2022-09-09T14:05:38.727Z,3074
2022-09-09T14:10:41.029Z,4267
2022-09-09T14:15:45.230Z,7332
2022-09-09T14:20:47.452Z,10472
2022-09-09T14:25:53.135Z,8903
2022-09-09T14:30:55.793Z,5609
2022-09-09T14:35:59.896Z,4397
2022-09-09T14:41:04.077Z,3600
2022-09-09T14:46:08.295Z,3812
2022-09-09T14:51:14.690Z,2376
2022-09-09T14:56:16.567Z,2426
2022-09-09T15:01:20.735Z,4351
2022-09-09T15:06:24.880Z,5468
2022-09-09T15:11:29.050Z,6825
2022-09-09T15:16:33.208Z,5423
2022-09-09T15:21:37.344Z,3740
2022-09-09T15:26:41.551Z,583
2022-09-09T15:31:45.683Z,133
2022-09-09T15:36:49.848Z,263
2022-09-09T15:41:53.987Z,380
2022-09-09T15:46:58.104Z,365
2022-09-09T15:52:02.336Z,283
2022-09-09T15:57:06.456Z,414
2022-09-09T16:02:10.774Z,812
2022-09-09T16:07:12.897Z,1240
2022-09-09T16:12:17.073Z,1817
2022-09-09T16:17:21.205Z,2422
2022-09-09T16:22:25.369Z,2980
2022-09-09T16:27:29.533Z,3529
2022-09-09T16:32:33.669Z,3746
2022-09-09T16:37:37.821Z,3810
2022-09-09T16:42:42.002Z,3040
2022-09-09T16:47:46.144Z,1525
2022-09-09T16:52:50.365Z,686
2022-09-09T16:57:54.512Z,1290
2022-09-09T17:02:58.691Z,1795
2022-09-09T17:08:02.798Z,3727
2022-09-09T17:13:06.960Z,4065
2022-09-09T17:18:11.126Z,2780
2022-09-09T17:23:15.302Z,1405
2022-09-09T17:28:19.438Z,635
2022-09-09T17:33:23.647Z,242
2022-09-09T17:38:28.824Z,278
2022-09-09T17:43:31.909Z,233
2022-09-09T17:48:36.067Z,186
2022-09-09T17:53:38.339Z,167
2022-09-09T17:58:42.516Z,120
2022-09-09T18:03:46.671Z,81
2022-09-09T18:08:50.814Z,56
2022-09-09T18:13:55.018Z,31
2022-09-09T18:18:59.125Z,15
2022-09-09T18:24:03.284Z,5
2022-09-09T18:29:07.457Z,1
2022-09-09T18:34:11.666Z,0
2022-09-09T18:39:15.777Z,0
2022-09-09T18:44:20.001Z,0
2022-09-09T18:49:24.114Z,0
2022-09-09T18:54:28.271Z,0
2022-09-09T18:59:32.457Z,0
2022-09-09T19:04:36.594Z,0
2022-09-09T19:09:40.727Z,0
2022-09-09T19:14:44.894Z,0
2022-09-09T19:19:49.041Z,0
2022-09-09T19:24:53.224Z,0
2022-09-09T19:29:57.385Z,0
2022-09-09T19:35:01.525Z,0
2022-09-09T19:40:03.810Z,0
2022-09-09T19:45:07.993Z,0
2022-09-09T19:50:12.107Z,0
2022-09-09T19:55:16.340Z,0
2022-09-09T20:00:20.424Z,0
2022-09-09T20:05:24.610Z,0
2022-09-09T20:10:28.767Z,0
2022-09-09T20:15:33.051Z,0
2022-09-09T20:20:37.109Z,0
2022-09-09T20:25:41.249Z,0
2022-09-09T20:30:45.608Z,0
2022-09-09T20:35:49.598Z,0
2022-09-09T20:40:53.712Z,0
2022-09-09T20:45:57.973Z,0
2022-09-09T20:51:02.070Z,0
2022-09-09T20:56:06.230Z,0
2022-09-09T21:01:10.457Z,0
2022-09-09T21:06:14.528Z,0
2022-09-09T21:11:18.696Z,0
2022-09-09T21:16:22.885Z,0
2022-09-09T21:21:27.061Z,0
2022-09-09T21:26:29.289Z,0
2022-09-09T21:31:33.589Z,0
2022-09-09T21:36:35.732Z,0
2022-09-09T21:41:39.893Z,0
2022-09-09T21:46:42.201Z,0
2022-09-09T21:51:46.328Z,0
2022-09-09T21:56:48.605Z,0
2022-09-09T22:01:52.777Z,0
2022-09-09T22:06:56.908Z,0
2022-09-09T22:12:01.062Z,0
2022-09-09T22:22:09.717Z,0
2022-09-09T22:32:17.809Z,0
2022-09-09T22:37:21.863Z,0
2022-09-09T22:42:26.018Z,0
2022-09-09T22:47:30.208Z,0
2022-09-09T22:52:34.382Z,0
2022-09-09T22:57:38.491Z,0
2022-09-09T23:02:42.666Z,0
2022-09-09T23:07:46.848Z,0
2022-09-09T23:12:50.962Z,0
2022-09-09T23:17:55.158Z,0
2022-09-09T23:22:59.302Z,0
2022-09-09T23:28:03.478Z,0
2022-09-09T23:33:07.614Z,0
2022-09-09T23:38:11.816Z,0
2022-09-09T23:43:14.024Z,0
2022-09-09T23:48:18.213Z,0
2022-09-09T23:53:20.493Z,0
2022-09-09T23:58:24.667Z,0
